Time;durP1;ratioP1;P1;durP2;ratioP2;P2;SDS_P1;SDS_P2;PMS_P1;PMS_P2;Temp;Humidity;BMP_temperature;BMP_pressure;BME280_temperature;BME280_humidity;BME280_pressure;Samples;Min_cycle;Max_cycle;Signal;HPM_P1;HPM_P2
2022/03/29 00:00:46;;;;;;;58.95;28.40;;;;;;;5.46;67.65;97616.78;1744039;82;21009;-57
2022/03/29 00:03:13;;;;;;;60.00;30.55;;;;;;;5.44;67.21;97616.23;1748137;80;21418;-57
2022/03/29 00:05:40;;;;;;;53.85;28.27;;;;;;;5.41;66.65;97610.04;1774939;80;20982;-57
2022/03/29 00:08:07;;;;;;;59.18;30.90;;;;;;;5.37;66.12;97607.03;1762203;80;20985;-57
2022/03/29 00:10:34;;;;;;;70.12;36.55;;;;;;;5.34;67.08;97604.06;1744176;82;21423;-57
2022/03/29 00:13:01;;;;;;;60.52;30.15;;;;;;;5.27;67.49;97601.58;1743986;81;20927;-57
2022/03/29 00:15:30;;;;;;;60.20;33.23;;;;;;;5.26;67.01;97600.50;1744354;82;21418;-57
2022/03/29 00:18:16;;;;;;;54.77;29.52;;;;;;;5.23;66.99;97598.33;1743917;81;20975;-57
2022/03/29 00:20:43;;;;;;;53.78;28.45;;;;;;;5.18;67.26;97595.59;1743902;82;20946;-57
2022/03/29 00:23:10;;;;;;;66.05;29.87;;;;;;;5.14;67.99;97593.95;1752233;80;20973;-57
2022/03/29 00:25:37;;;;;;;59.38;30.80;;;;;;;5.07;67.07;97583.95;1744375;81;20978;-57
2022/03/29 00:28:04;;;;;;;54.67;28.30;;;;;;;4.99;69.54;97585.22;1747114;80;21384;-57
2022/03/29 00:30:31;;;;;;;61.80;32.03;;;;;;;4.97;68.06;97580.64;1744556;80;21040;-57
2022/03/29 00:32:58;;;;;;;50.98;26.45;;;;;;;4.95;67.18;97581.94;1743993;81;21014;-57
2022/03/29 00:35:25;;;;;;;49.55;25.48;;;;;;;4.91;67.80;97574.94;1744072;82;20983;-57
2022/03/29 00:37:53;;;;;;;83.55;34.90;;;;;;;4.83;66.79;97573.23;1746606;80;21010;-57
2022/03/29 00:40:20;;;;;;;78.50;36.73;;;;;;;4.75;66.50;97571.81;1744195;82;21591;-57
2022/03/29 00:42:47;;;;;;;63.65;28.55;;;;;;;4.74;66.40;97564.30;1743697;81;20975;-57
2022/03/29 00:45:14;;;;;;;57.60;25.82;;;;;;;4.74;66.39;97557.59;1744188;82;20986;-57
2022/03/29 00:47:41;;;;;;;55.85;27.00;;;;;;;4.74;66.41;97559.46;1743985;82;21295;-57
2022/03/29 00:50:09;;;;;;;60.30;27.82;;;;;;;4.76;66.61;97549.27;1744275;82;20975;-57
2022/03/29 00:52:37;;;;;;;56.30;26.40;;;;;;;4.81;67.30;97547.46;1743874;81;21998;-57
2022/03/29 00:55:06;;;;;;;57.88;26.73;;;;;;;4.86;67.13;97538.63;1744531;82;20986;-58
2022/03/29 00:57:34;;;;;;;43.38;22.25;;;;;;;4.86;68.00;97537.82;1724668;80;20981;-57
2022/03/29 01:00:02;;;;;;;46.95;23.45;;;;;;;4.89;70.16;97527.94;1744384;82;21007;-57
2022/03/29 01:02:29;;;;;;;34.65;18.37;;;;;;;4.87;67.81;97528.20;1743959;81;21156;-57
2022/03/29 01:04:56;;;;;;;39.18;18.32;;;;;;;4.88;69.52;97523.63;1744164;82;22141;-58
2022/03/29 01:07:24;;;;;;;39.00;19.05;;;;;;;4.89;68.50;97517.20;1743828;81;20951;-57
2022/03/29 01:09:51;;;;;;;36.75;18.77;;;;;;;4.83;68.49;97515.52;1744475;82;21014;-57
2022/03/29 01:12:18;;;;;;;38.40;18.48;;;;;;;4.80;68.26;97513.63;1743867;81;20986;-57
2022/03/29 01:14:45;;;;;;;41.92;19.65;;;;;;;4.75;69.19;97509.55;1744514;82;20971;-57
2022/03/29 01:19:57;;;;;;;36.15;17.30;;;;;;;4.79;72.50;97513.36;1738669;82;20981;-57
2022/03/29 01:22:24;;;;;;;40.50;18.90;;;;;;;4.76;73.63;97507.13;1740589;80;20954;-58
2022/03/29 01:24:51;;;;;;;35.70;19.35;;;;;;;4.72;73.31;97513.28;1750120;80;20958;-57
2022/03/29 01:27:19;;;;;;;39.75;21.37;;;;;;;4.70;74.74;97522.09;1743684;81;20978;-58
2022/03/29 01:29:46;;;;;;;33.85;14.98;;;;;;;4.71;75.35;97568.84;1747227;81;22114;-58
2022/03/29 01:32:13;;;;;;;35.95;17.70;;;;;;;4.81;71.94;97541.28;1743917;81;21045;-57
2022/03/29 01:34:42;;;;;;;39.58;20.37;;;;;;;4.86;72.00;97562.79;1743932;82;21018;-57
2022/03/29 01:37:09;;;;;;;40.60;20.62;;;;;;;5.02;71.59;97559.19;1746551;80;20957;-57
2022/03/29 01:39:36;;;;;;;39.60;20.52;;;;;;;5.21;71.16;97546.21;1744408;82;21077;-58
2022/03/29 01:42:04;;;;;;;38.80;20.23;;;;;;;5.34;70.55;97550.33;1743857;82;22191;-57
2022/03/29 01:44:31;;;;;;;40.23;21.45;;;;;;;5.47;70.11;97545.87;1743979;81;20971;-57
2022/03/29 01:46:58;;;;;;;42.58;20.85;;;;;;;5.59;69.96;97537.07;1743988;82;20975;-57
2022/03/29 01:49:25;;;;;;;45.83;22.32;;;;;;;5.66;69.65;97539.54;1745656;80;21029;-57
2022/03/29 01:51:52;;;;;;;45.43;21.50;;;;;;;5.77;69.30;97549.27;1744068;82;20997;-58
2022/03/29 01:54:19;;;;;;;46.50;23.95;;;;;;;5.81;69.02;97554.92;1751904;80;21438;-57
2022/03/29 01:56:46;;;;;;;41.08;19.65;;;;;;;5.85;70.03;97552.01;1743945;81;20965;-58
2022/03/29 01:59:13;;;;;;;49.60;24.98;;;;;;;5.90;69.26;97545.33;1760536;80;20950;-58
2022/03/29 02:01:47;;;;;;;40.30;20.17;;;;;;;5.89;69.25;97539.11;1774827;80;21018;-58
2022/03/29 02:04:14;;;;;;;45.40;22.82;;;;;;;5.88;69.23;97546.91;1747822;80;20959;-58
2022/03/29 02:06:41;;;;;;;47.53;22.27;;;;;;;5.93;68.75;97552.36;1744305;81;21487;-57
2022/03/29 02:09:09;;;;;;;48.23;24.63;;;;;;;6.02;68.53;97548.64;1752066;80;20966;-58
2022/03/29 02:11:35;;;;;;;50.03;26.00;;;;;;;6.08;68.57;97540.88;1743926;82;21001;-58
2022/03/29 02:14:02;;;;;;;47.73;24.05;;;;;;;6.08;69.00;97538.19;1743859;81;21471;-57
2022/03/29 02:16:29;;;;;;;45.30;23.25;;;;;;;6.11;71.21;97528.77;1744080;82;21003;-57
2022/03/29 02:18:56;;;;;;;40.78;22.10;;;;;;;6.14;70.81;97520.97;1743831;81;21067;-57
2022/03/29 02:21:23;;;;;;;51.00;26.45;;;;;;;6.15;69.28;97515.05;1743953;82;20955;-57
2022/03/29 02:23:50;;;;;;;45.95;24.92;;;;;;;6.13;69.37;97538.19;1755748;80;21422;-57
2022/03/29 02:26:17;;;;;;;43.35;24.27;;;;;;;6.16;69.33;97547.64;1774777;80;21028;-57
2022/03/29 02:28:44;;;;;;;45.33;23.92;;;;;;;6.14;70.09;97545.72;1762089;80;20967;-57
2022/03/29 02:31:11;;;;;;;49.70;23.80;;;;;;;6.13;70.40;97536.84;1744252;82;21405;-57
2022/03/29 02:33:38;;;;;;;43.42;21.95;;;;;;;5.98;71.07;97550.75;1743701;81;20959;-57
2022/03/29 02:36:05;;;;;;;42.08;22.52;;;;;;;5.86;72.69;97550.94;1744134;82;21419;-57
2022/03/29 02:38:32;;;;;;;45.35;23.70;;;;;;;5.81;76.64;97554.92;1745787;80;21026;-57
2022/03/29 02:41:00;;;;;;;47.48;23.80;;;;;;;5.82;73.71;97556.58;1743988;82;21018;-57
2022/03/29 02:43:27;;;;;;;40.03;22.70;;;;;;;5.86;74.08;97546.91;1744059;81;22173;-57
2022/03/29 02:45:54;;;;;;;30.32;17.07;;;;;;;5.88;73.42;97538.84;1744163;82;20951;-57
2022/03/29 02:48:20;;;;;;;35.13;16.50;;;;;;;5.77;75.63;97526.42;1743791;82;21022;-57
2022/03/29 02:50:47;;;;;;;28.75;16.25;;;;;;;5.63;80.21;97520.69;1744232;82;21205;-57
2022/03/29 02:53:15;;;;;;;30.15;16.73;;;;;;;5.62;76.79;97513.69;1743898;82;21419;-57
2022/03/29 02:55:42;;;;;;;32.25;17.12;;;;;;;5.64;83.17;97509.42;1744458;82;21408;-58
2022/03/29 02:58:10;;;;;;;35.80;18.07;;;;;;;5.66;84.76;97512.66;1748580;80;20969;-56
2022/03/29 03:00:37;;;;;;;32.28;18.30;;;;;;;5.82;85.99;97509.52;1774935;80;20955;-58
2022/03/29 03:03:04;;;;;;;32.75;18.35;;;;;;;5.90;80.03;97503.14;1762560;80;21001;-57
2022/03/29 03:05:31;;;;;;;37.63;17.52;;;;;;;5.86;78.98;97493.93;1744196;81;20966;-57
2022/03/29 03:07:58;;;;;;;34.92;18.67;;;;;;;5.88;79.29;97490.44;1751998;80;21014;-57
2022/03/29 03:10:25;;;;;;;34.27;18.82;;;;;;;6.03;80.06;97492.96;1744177;82;21032;-58
2022/03/29 03:12:52;;;;;;;37.23;19.00;;;;;;;6.17;80.45;97499.48;1751759;80;21450;-58
2022/03/29 03:15:23;;;;;;;27.22;15.80;;;;;;;6.26;82.85;97501.13;1774757;80;20981;-57
2022/03/29 03:17:51;;;;;;;37.08;21.12;;;;;;;6.28;83.45;97501.66;1765636;80;20975;-58
2022/03/29 03:20:18;;;;;;;53.75;26.82;;;;;;;6.31;83.64;97503.27;1744244;82;21435;-58
2022/03/29 03:22:45;;;;;;;45.80;25.77;;;;;;;6.32;81.37;97497.36;1743752;81;20970;-57
2022/03/29 03:25:12;;;;;;;49.05;25.80;;;;;;;6.34;81.80;97492.55;1743766;82;21442;-58
2022/03/29 03:27:40;;;;;;;36.98;19.95;;;;;;;6.36;84.38;97485.81;1743834;81;21026;-58
2022/03/29 03:30:13;;;;;;;30.23;17.17;;;;;;;6.41;85.79;97483.66;1744277;82;20971;-58
2022/03/29 03:32:41;;;;;;;25.88;16.60;;;;;;;6.42;88.49;97473.99;1743886;82;20956;-57
2022/03/29 03:35:09;;;;;;;22.87;15.05;;;;;;;6.45;86.31;97483.41;1743932;81;20982;-58
2022/03/29 03:37:36;;;;;;;26.55;16.82;;;;;;;6.47;84.73;97481.25;1748201;80;21010;-58
2022/03/29 03:40:05;;;;;;;26.37;15.03;;;;;;;6.44;84.64;97477.22;1771078;80;20994;-58
2022/03/29 03:42:31;;;;;;;30.50;17.07;;;;;;;6.43;84.53;97470.77;1769712;80;21522;-58
2022/03/29 03:44:59;;;;;;;26.73;17.85;;;;;;;6.46;83.63;97479.10;1744117;82;21293;-58
2022/03/29 03:47:28;;;;;;;29.23;17.12;;;;;;;6.47;82.58;97472.64;1744205;81;20990;-57
2022/03/29 03:49:55;;;;;;;36.75;18.98;;;;;;;6.48;82.71;97468.06;1744451;82;21002;-58
2022/03/29 03:52:22;;;;;;;34.63;17.42;;;;;;;6.48;81.80;97472.91;1744088;80;21002;-57
2022/03/29 03:54:49;;;;;;;30.70;16.07;;;;;;;6.46;81.66;97472.91;1744272;82;20989;-57
2022/03/29 03:57:17;;;;;;;29.72;14.68;;;;;;;6.45;81.30;97468.61;1745941;80;21718;-58
2022/03/29 03:59:48;;;;;;;27.02;15.93;;;;;;;6.39;83.07;97466.97;1751785;80;21424;-57
2022/03/29 04:02:13;;;;;;;23.57;13.78;;;;;;;6.30;81.63;97463.19;1745196;80;20993;-57
2022/03/29 04:04:40;;;;;;;24.12;13.62;;;;;;;6.22;82.28;97459.93;1752643;80;20959;-58
2022/03/29 04:07:07;;;;;;;26.42;15.15;;;;;;;6.13;84.03;97453.98;1744152;81;20966;-58
2022/03/29 04:09:38;;;;;;;27.80;14.73;;;;;;;6.05;83.01;97454.50;1773577;80;21426;-57
2022/03/29 04:12:06;;;;;;;25.08;13.95;;;;;;;5.98;84.72;97448.02;1774740;80;20970;-58
2022/03/29 04:14:33;;;;;;;24.75;13.68;;;;;;;5.93;82.50;97456.89;1745673;80;21399;-57
2022/03/29 04:17:00;;;;;;;28.30;16.77;;;;;;;5.81;82.80;97450.07;1744046;82;20958;-57
2022/03/29 04:19:27;;;;;;;27.07;17.20;;;;;;;5.74;85.42;97449.52;1745766;80;20993;-58
2022/03/29 04:21:54;;;;;;;28.75;16.60;;;;;;;5.70;83.52;97445.73;1744152;82;21300;-57
2022/03/29 04:24:21;;;;;;;35.60;19.40;;;;;;;5.64;83.37;97436.31;1762250;80;20998;-57
2022/03/29 04:26:48;;;;;;;33.38;20.68;;;;;;;5.56;83.37;97437.34;1774984;80;21025;-57
2022/03/29 04:29:15;;;;;;;37.23;22.17;;;;;;;5.52;83.16;97442.95;1747620;80;21002;-58
2022/03/29 04:31:42;;;;;;;36.20;20.90;;;;;;;5.51;83.40;97434.08;1744161;82;21395;-57
2022/03/29 04:34:09;;;;;;;39.95;26.30;;;;;;;5.50;84.42;97438.38;1743875;82;21307;-58
2022/03/29 04:36:36;;;;;;;36.50;23.73;;;;;;;5.50;83.56;97437.84;1744251;82;21037;-57
2022/03/29 04:39:03;;;;;;;39.38;25.08;;;;;;;5.52;83.32;97433.55;1751811;80;21065;-57
2022/03/29 04:41:30;;;;;;;46.58;26.80;;;;;;;5.53;84.11;97425.22;1744173;82;20951;-57
2022/03/29 04:43:58;;;;;;;56.40;32.23;;;;;;;5.56;83.47;97430.63;1757326;80;21032;-57
2022/03/29 04:46:25;;;;;;;45.50;26.40;;;;;;;5.61;83.61;97425.26;1774835;80;21522;-57
2022/03/29 04:48:52;;;;;;;46.30;26.37;;;;;;;5.65;84.51;97431.75;1766569;80;21395;-57
2022/03/29 04:51:19;;;;;;;47.23;28.50;;;;;;;5.71;85.12;97430.67;1775023;80;22058;-58
2022/03/29 04:53:46;;;;;;;44.30;26.30;;;;;;;5.74;84.35;97446.30;1753626;80;21034;-57
2022/03/29 04:56:13;;;;;;;48.10;26.68;;;;;;;5.80;83.88;97451.95;1746111;80;21041;-57
2022/03/29 04:58:40;;;;;;;48.78;29.35;;;;;;;5.90;84.59;97443.98;1749097;80;21034;-58
2022/03/29 05:01:07;;;;;;;52.83;33.23;;;;;;;5.92;85.15;97441.02;1764623;81;20981;-57
2022/03/29 05:03:33;;;;;;;52.55;30.68;;;;;;;5.99;84.47;97441.59;1750464;80;20990;-57
2022/03/29 05:06:00;;;;;;;56.63;33.33;;;;;;;6.06;84.03;97453.42;1771942;80;21375;-57
2022/03/29 05:08:27;;;;;;;56.65;28.20;;;;;;;6.11;85.95;97448.07;1754322;80;21036;-58
2022/03/29 05:10:55;;;;;;;51.40;29.07;;;;;;;6.15;85.36;97440.56;1756762;80;21335;-58
2022/03/29 05:13:22;;;;;;;48.15;26.65;;;;;;;6.14;85.74;97441.61;1747737;80;20967;-57
2022/03/29 05:15:49;;;;;;;43.45;24.67;;;;;;;6.03;90.40;97439.17;1745864;80;20967;-58
2022/03/29 05:18:16;;;;;;;38.60;24.00;;;;;;;6.06;90.22;97439.97;1743918;81;21494;-57
2022/03/29 05:20:43;;;;;;;30.10;19.75;;;;;;;6.10;88.00;97435.16;1744054;82;20998;-58
2022/03/29 05:23:10;;;;;;;35.58;22.17;;;;;;;6.15;87.13;97442.42;1743889;81;21422;-57
2022/03/29 05:25:37;;;;;;;37.30;22.82;;;;;;;6.23;86.49;97440.02;1744097;82;21033;-57
2022/03/29 05:28:04;;;;;;;38.40;23.00;;;;;;;6.30;85.82;97438.97;1754372;80;20993;-57
2022/03/29 05:30:32;;;;;;;36.93;24.40;;;;;;;6.35;86.82;97442.48;1745618;80;20959;-58
2022/03/29 05:33:00;;;;;;;35.83;21.55;;;;;;;6.43;87.24;97437.12;1747544;80;21034;-57
2022/03/29 05:35:31;;;;;;;35.35;22.50;;;;;;;6.50;86.69;97435.79;1756431;80;20993;-57
2022/03/29 05:38:00;;;;;;;46.33;26.25;;;;;;;6.56;89.29;97439.81;1750511;80;20967;-57
2022/03/29 05:40:28;;;;;;;63.00;35.47;;;;;;;6.52;90.70;97439.55;1763030;80;20958;-58
2022/03/29 05:42:55;;;;;;;75.63;42.13;;;;;;;6.57;87.45;97446.27;1723088;80;21386;-57
2022/03/29 05:45:22;;;;;;;73.75;40.85;;;;;;;6.60;87.18;97438.22;1774784;80;21002;-57
2022/03/29 05:50:34;;;;;;;40.35;25.68;;;;;;;6.61;86.62;97448.72;1774670;80;20922;-58
2022/03/29 05:53:02;;;;;;;34.63;22.20;;;;;;;6.70;87.73;97446.30;1762919;80;20971;-57
2022/03/29 05:55:29;;;;;;;32.23;21.25;;;;;;;6.77;86.70;97447.66;1744003;82;21002;-57
2022/03/29 05:57:56;;;;;;;34.18;23.42;;;;;;;6.89;86.01;97454.65;1743829;81;21041;-57
2022/03/29 06:00:23;;;;;;;43.78;25.20;;;;;;;6.99;85.97;97445.21;1744195;82;22040;-57
2022/03/29 06:02:51;;;;;;;36.45;22.75;;;;;;;7.07;86.74;97438.73;1758379;80;21426;-58
2022/03/29 06:05:18;;;;;;;38.75;22.87;;;;;;;7.20;87.96;97446.02;1746147;80;21537;-58
2022/03/29 06:07:45;;;;;;;43.30;25.15;;;;;;;7.34;87.77;97448.41;1743309;80;21084;-58
2022/03/29 06:10:12;;;;;;;42.00;25.52;;;;;;;7.45;87.99;97440.59;1753263;80;21025;-58
2022/03/29 06:12:39;;;;;;;46.15;28.90;;;;;;;7.57;87.78;97451.86;1748187;80;21025;-58
2022/03/29 06:15:10;;;;;;;45.48;28.75;;;;;;;7.70;88.48;97448.34;1753412;80;20994;-57
2022/03/29 06:17:37;;;;;;;55.10;32.65;;;;;;;7.87;87.30;97454.22;1761521;80;21048;-58
2022/03/29 06:20:06;;;;;;;49.93;29.40;;;;;;;8.01;87.62;97457.91;1750917;80;21021;-58
2022/03/29 06:22:44;;;;;;;42.75;26.52;;;;;;;8.20;86.77;97463.48;1751796;80;21829;-57
2022/03/29 06:25:12;;;;;;;50.00;31.42;;;;;;;8.34;86.07;97454.25;1760873;80;21630;-58
2022/03/29 06:27:39;;;;;;;56.13;42.33;;;;;;;8.46;85.75;97456.12;1754078;80;21155;-58
2022/03/29 06:30:08;;;;;;;57.55;36.75;;;;;;;8.52;86.14;97457.67;1760650;80;20965;-58
2022/03/29 06:32:47;;;;;;;48.58;29.40;;;;;;;8.63;85.51;97459.77;1757165;80;21514;-58
2022/03/29 06:35:14;;;;;;;;;;;;;;;8.75;84.72;97456.18;1762788;80;21044;-58
2022/03/29 06:37:40;;;;;;;58.73;34.63;;;;;;;8.73;85.48;97460.52;1762961;80;20912;-58
2022/03/29 06:40:09;;;;;;;47.25;29.90;;;;;;;8.78;85.09;97454.80;1744684;80;20981;-58
2022/03/29 06:42:36;;;;;;;47.27;28.75;;;;;;;8.87;84.62;97464.72;1743401;81;20997;-58
2022/03/29 06:45:04;;;;;;;41.18;27.45;;;;;;;8.99;84.03;97457.08;1755119;80;21001;-58
2022/03/29 06:47:32;;;;;;;45.58;28.77;;;;;;;9.16;83.83;97446.41;1756017;80;21096;-58
2022/03/29 06:49:59;;;;;;;43.42;28.70;;;;;;;9.30;83.79;97445.44;1750039;80;21065;-58
2022/03/29 06:52:28;;;;;;;63.87;39.60;;;;;;;9.46;83.25;97450.15;1743470;80;21497;-58
2022/03/29 06:54:55;;;;;;;59.53;37.00;;;;;;;9.58;83.31;97441.11;1746235;81;26020;-57
2022/03/29 06:57:22;;;;;;;48.78;31.95;;;;;;;9.75;82.82;97452.03;1765188;80;21088;-58
2022/03/29 06:59:49;;;;;;;49.15;33.23;;;;;;;9.87;82.20;97452.42;1745308;81;21187;-58
2022/03/29 07:02:15;;;;;;;51.42;30.35;;;;;;;10.00;81.99;97444.13;1746225;81;20986;-58
2022/03/29 07:04:43;;;;;;;46.92;26.90;;;;;;;10.15;81.25;97446.11;1741673;81;21663;-58
2022/03/29 07:07:10;;;;;;;42.25;27.73;;;;;;;10.27;80.72;97447.09;1741764;81;21037;-58
2022/03/29 07:12:22;;;;;;;49.10;30.77;;;;;;;10.59;80.16;97442.83;1743906;80;20992;-58
2022/03/29 07:14:49;;;;;;;46.75;32.25;;;;;;;10.78;79.81;97436.88;1746711;80;21730;-58
2022/03/29 07:17:17;;;;;;;44.40;27.98;;;;;;;11.08;79.47;97441.53;1743623;80;21040;-56
2022/03/29 07:19:44;;;;;;;46.03;30.17;;;;;;;11.23;78.62;97439.37;1755965;80;21124;-57
2022/03/29 07:22:11;;;;;;;41.13;27.58;;;;;;;11.26;78.45;97448.81;1746842;80;21119;-58
2022/03/29 07:24:38;;;;;;;80.47;54.70;;;;;;;11.23;78.34;97438.02;1743273;80;21111;-57
2022/03/29 07:27:05;;;;;;;51.48;34.33;;;;;;;11.20;78.26;97431.05;1741416;82;21995;-58
2022/03/29 07:29:33;;;;;;;48.20;29.80;;;;;;;11.24;78.04;97431.48;1748047;80;21034;-58
2022/03/29 07:32:00;;;;;;;43.80;28.42;;;;;;;11.34;77.78;97430.50;1748249;80;21116;-57
2022/03/29 07:34:28;;;;;;;47.93;29.70;;;;;;;11.44;77.83;97430.31;1750533;80;21013;-58
2022/03/29 07:36:56;;;;;;;45.10;29.25;;;;;;;11.54;77.60;97438.84;1764852;80;21060;-58
2022/03/29 07:39:23;;;;;;;45.23;29.03;;;;;;;11.56;77.24;97439.34;1748976;80;21363;-57
2022/03/29 07:41:50;;;;;;;37.48;26.00;;;;;;;11.45;77.16;97446.87;1741548;80;21049;-58
2022/03/29 07:44:18;;;;;;;42.95;26.00;;;;;;;11.36;77.18;97445.92;1741577;82;21458;-57
2022/03/29 07:46:45;;;;;;;41.37;26.47;;;;;;;11.29;76.48;97452.30;1743299;80;21481;-57
2022/03/29 07:49:12;;;;;;;41.90;26.57;;;;;;;11.14;76.51;97447.14;1746687;80;21037;-58
2022/03/29 07:51:39;;;;;;;41.42;26.95;;;;;;;11.04;76.74;97437.27;1723249;82;21397;-58
2022/03/29 07:54:06;;;;;;;46.42;28.77;;;;;;;10.98;76.70;97435.73;1746338;80;21024;-57
2022/03/29 07:56:33;;;;;;;45.05;30.05;;;;;;;10.85;77.92;97441.38;1742635;80;21044;-57
2022/03/29 07:59:00;;;;;;;29.40;17.55;;;;;;;10.84;77.28;97432.96;1756434;80;21675;-58
2022/03/29 08:01:29;;;;;;;36.98;20.52;;;;;;;10.66;71.85;97422.95;1750728;80;36650;-58
2022/03/29 08:03:56;;;;;;;31.42;15.13;;;;;;;10.74;70.91;97431.77;1770710;80;21018;-58
2022/03/29 08:06:23;;;;;;;26.70;15.80;;;;;;;10.78;69.42;97430.09;1745766;80;21539;-57
2022/03/29 08:08:50;;;;;;;28.67;16.30;;;;;;;10.86;69.83;97426.72;1748024;80;20990;-57
2022/03/29 08:11:18;;;;;;;28.47;17.15;;;;;;;10.93;69.58;97425.77;1746899;80;21084;-58
2022/03/29 08:13:46;;;;;;;24.65;14.87;;;;;;;10.98;68.87;97429.77;1744475;80;20988;-58
2022/03/29 08:16:13;;;;;;;24.12;15.20;;;;;;;11.13;68.72;97428.70;1756736;80;22264;-57
2022/03/29 08:18:40;;;;;;;24.50;15.85;;;;;;;11.42;67.26;97434.44;1741700;80;20991;-58
2022/03/29 08:21:48;;;;;;;26.57;17.07;;;;;;;11.50;67.78;97429.67;1753680;80;20998;-57
2022/03/29 08:23:36;;;;;;;26.10;15.90;;;;;;;11.71;67.70;97427.40;1753806;80;21038;-57
2022/03/29 08:26:03;;;;;;;21.82;15.93;;;;;;;12.23;65.71;97417.14;1756500;80;21169;-58
2022/03/29 08:28:29;;;;;;;23.57;15.08;;;;;;;12.56;65.41;97403.63;1747812;80;21065;-58
2022/03/29 08:30:56;;;;;;;23.70;16.10;;;;;;;13.02;63.25;97398.98;1745283;82;21080;-58
2022/03/29 08:33:23;;;;;;;24.25;14.13;;;;;;;13.49;61.00;97396.14;1749337;80;20966;-58
2022/03/29 08:35:50;;;;;;;19.77;14.23;;;;;;;14.02;63.14;97391.15;1756985;80;21461;-58
2022/03/29 08:38:17;;;;;;;21.50;14.73;;;;;;;14.24;59.49;97397.83;1744209;80;21125;-58
2022/03/29 08:40:45;;;;;;;20.55;12.73;;;;;;;14.27;58.34;97397.20;1755730;80;21080;-58
2022/03/29 08:43:12;;;;;;;22.02;13.50;;;;;;;14.27;59.07;97397.20;1758283;80;20989;-58
2022/03/29 08:45:40;;;;;;;19.73;13.08;;;;;;;14.11;59.66;97391.97;1747231;80;21021;-58
2022/03/29 08:48:08;;;;;;;25.23;18.57;;;;;;;14.03;60.11;97388.10;1752828;80;21005;-58
2022/03/29 08:50:36;;;;;;;24.43;16.43;;;;;;;14.11;60.39;97393.33;1748030;80;21104;-58
2022/03/29 08:53:04;;;;;;;23.10;14.28;;;;;;;14.03;59.74;97391.39;1745753;80;21078;-58
2022/03/29 08:55:31;;;;;;;21.25;13.50;;;;;;;13.73;58.90;97396.57;1748497;80;21032;-58
2022/03/29 08:57:58;;;;;;;21.65;14.65;;;;;;;13.89;59.40;97400.23;1741925;81;21505;-58
2022/03/29 09:00:24;;;;;;;20.90;14.35;;;;;;;13.72;58.62;97395.53;1747039;80;20982;-58
2022/03/29 09:02:51;;;;;;;22.27;15.10;;;;;;;13.92;59.46;97396.86;1748634;80;21002;-58
2022/03/29 09:05:24;;;;;;;24.27;16.35;;;;;;;14.00;59.78;97388.72;1749166;80;21621;-58
2022/03/29 09:07:56;;;;;;;21.77;15.45;;;;;;;13.66;59.26;97391.33;1748156;80;21070;-58
2022/03/29 09:10:41;;;;;;;26.93;16.15;;;;;;;13.64;60.15;97393.02;1747591;80;21001;-58
2022/03/29 09:13:27;;;;;;;29.72;17.82;;;;;;;13.68;60.46;97383.11;1719256;81;21088;-58
2022/03/29 09:15:58;;;;;;;26.73;18.77;;;;;;;13.41;61.28;97385.46;1741238;81;21057;-58
2022/03/29 09:18:25;;;;;;;28.70;17.73;;;;;;;13.10;61.94;97382.72;1741139;80;21046;-58
2022/03/29 09:21:13;;;;;;;28.60;17.37;;;;;;;13.43;61.78;97378.37;1748869;80;20994;-58
2022/03/29 09:23:41;;;;;;;;;;;;;;;13.32;61.73;97371.58;1751165;81;21181;-59
2022/03/29 09:26:27;;;;;;;35.38;18.10;;;;;;;13.54;61.38;97376.97;1742427;80;20225;-58
2022/03/29 09:28:54;;;;;;;26.00;16.48;;;;;;;13.59;61.39;97373.28;1748667;80;21916;-57
2022/03/29 09:31:22;;;;;;;31.10;18.42;;;;;;;13.64;61.07;97363.06;1741829;81;21049;-58
2022/03/29 09:33:49;;;;;;;;;;;;;;;13.74;60.57;97360.61;1747200;80;21234;-57
2022/03/29 09:36:20;;;;;;;27.73;17.27;;;;;;;13.44;60.10;97368.52;1745945;80;20482;-58
2022/03/29 09:38:51;;;;;;;;;;;;;;;13.54;59.83;97364.72;1749140;80;21017;-58
2022/03/29 09:41:28;;;;;;;20.40;14.20;;;;;;;13.69;59.57;97368.38;1738584;81;20427;-58
2022/03/29 09:44:07;;;;;;;25.50;15.80;;;;;;;13.40;59.36;97370.25;1748636;80;21018;-58
2022/03/29 09:47:04;;;;;;;22.93;15.13;;;;;;;13.32;59.52;97357.97;1742886;80;21037;-58
2022/03/29 09:49:54;;;;;;;22.87;14.95;;;;;;;13.19;59.27;97359.66;1748222;80;21090;-58
2022/03/29 09:52:27;;;;;;;21.93;14.25;;;;;;;13.49;59.39;97362.13;1744919;80;20974;-58
2022/03/29 09:55:13;;;;;;;23.90;14.28;;;;;;;13.36;58.36;97360.33;1746036;80;21132;-57
2022/03/29 09:57:55;;;;;;;23.57;13.78;;;;;;;14.00;58.43;97356.03;1757790;80;21119;-58
2022/03/29 10:00:33;;;;;;;28.45;14.43;;;;;;;13.92;56.59;97356.02;1752379;80;20982;-57
2022/03/29 10:03:01;;;;;;;21.60;13.18;;;;;;;13.97;56.23;97359.40;1748687;80;21032;-58
2022/03/29 10:05:28;;;;;;;20.17;12.58;;;;;;;14.21;56.29;97356.23;1742070;81;21037;-58
2022/03/29 10:11:02;;;;;;;24.52;14.68;;;;;;;14.27;55.57;97351.41;1753042;80;21151;-58
2022/03/29 10:13:29;;;;;;;22.95;13.95;;;;;;;14.22;55.35;97345.58;1752285;80;21100;-58
2022/03/29 10:15:56;;;;;;;22.55;13.65;;;;;;;14.38;55.13;97342.63;1691241;83;21096;-58
2022/03/29 10:18:27;;;;;;;19.55;14.00;;;;;;;14.67;55.92;97342.55;1755547;80;21010;-58
2022/03/29 10:20:56;;;;;;;32.20;15.30;;;;;;;14.60;54.89;97342.23;1743616;80;21076;-58
2022/03/29 10:23:24;;;;;;;24.72;15.03;;;;;;;14.42;54.54;97342.77;1745328;80;21111;-58
2022/03/29 10:25:52;;;;;;;26.90;13.80;;;;;;;14.19;54.90;97337.25;1760780;80;21023;-58
2022/03/29 10:28:20;;;;;;;21.33;13.15;;;;;;;14.26;55.87;97335.63;1746317;80;21072;-58
2022/03/29 10:30:47;;;;;;;25.77;16.20;;;;;;;14.33;55.98;97329.14;1747752;80;21020;-58
2022/03/29 10:33:23;;;;;;;27.07;16.80;;;;;;;14.12;55.78;97333.64;1734195;81;21140;-58
2022/03/29 10:36:11;;;;;;;23.65;17.15;;;;;;;13.79;55.91;97323.16;1750177;80;21199;-58
2022/03/29 10:38:53;;;;;;;25.80;15.98;;;;;;;13.72;55.89;97324.74;1749570;80;21066;-58
2022/03/29 10:41:32;;;;;;;20.08;13.88;;;;;;;13.94;56.54;97317.03;1750553;80;21064;-58
2022/03/29 10:44:08;;;;;;;25.55;15.72;;;;;;;13.85;56.37;97316.22;1753950;80;21142;-58
2022/03/29 10:46:45;;;;;;;22.40;14.58;;;;;;;13.86;56.15;97304.20;1744081;80;21002;-58
2022/03/29 10:49:27;;;;;;;25.70;15.88;;;;;;;13.83;56.32;97311.06;1745019;80;21132;-58
2022/03/29 10:52:09;;;;;;;25.68;15.38;;;;;;;13.86;56.33;97306.36;1758510;81;21454;-58
2022/03/29 10:54:44;;;;;;;29.57;15.75;;;;;;;13.64;56.62;97303.73;1748331;80;21013;-58
2022/03/29 10:57:34;;;;;;;24.15;15.32;;;;;;;13.87;56.67;97293.55;1744629;80;21018;-58
2022/03/29 11:00:17;;;;;;;24.92;15.75;;;;;;;14.13;56.32;97291.64;1736334;81;21017;-58
2022/03/29 11:03:07;;;;;;;25.65;15.48;;;;;;;14.18;55.95;97283.30;1748071;80;21164;-58
2022/03/29 11:05:36;;;;;;;27.98;16.62;;;;;;;14.53;55.74;97283.33;1739474;80;21013;-58
2022/03/29 11:08:09;;;;;;;37.88;26.12;;;;;;;14.50;54.56;97282.03;1739624;82;21171;-58
2022/03/29 11:10:42;;;;;;;28.62;18.07;;;;;;;14.19;54.70;97271.30;1747421;80;21069;-58
2022/03/29 11:13:29;;;;;;;37.73;25.75;;;;;;;14.35;54.78;97274.31;1768708;80;21009;-58
2022/03/29 11:16:01;;;;;;;31.73;21.82;;;;;;;14.26;55.06;97272.95;1749009;80;21917;-57
2022/03/29 11:18:38;;;;;;;29.82;17.57;;;;;;;14.43;55.25;97263.16;1752536;80;21028;-58
2022/03/29 11:21:05;;;;;;;26.07;17.25;;;;;;;14.49;55.11;97258.63;1763379;80;21040;-58
2022/03/29 11:23:44;;;;;;;31.17;17.17;;;;;;;14.44;55.46;97265.59;1742898;80;22843;-58
2022/03/29 11:26:14;;;;;;;26.90;17.02;;;;;;;14.51;55.63;97260.46;1741395;82;21087;-58
2022/03/29 11:28:54;;;;;;;28.47;17.20;;;;;;;14.19;55.49;97267.78;1752026;80;21040;-58
2022/03/29 11:31:22;;;;;;;28.62;17.23;;;;;;;13.74;56.67;97266.13;1743226;80;21028;-58
2022/03/29 11:33:52;;;;;;;28.27;16.65;;;;;;;13.69;57.98;97261.41;1734188;81;21513;-58
2022/03/29 11:36:19;;;;;;;27.95;16.77;;;;;;;13.49;59.87;97246.45;1744542;80;21053;-58
2022/03/29 11:38:47;;;;;;;29.85;16.95;;;;;;;13.50;59.72;97250.25;1742390;81;21056;-58
2022/03/29 11:41:29;;;;;;;30.95;17.77;;;;;;;13.76;59.53;97246.77;1742998;80;21084;-58
2022/03/29 11:44:00;;;;;;;29.77;18.48;;;;;;;13.82;58.87;97244.91;1742662;80;21482;-58